sensor_id;sensor_type;location;lat;lon;timestamp;temperature;humidity
32534;DHT22;18973;48.580;8.912;2022-08-19T00:01:43;21.30;99.90
32534;DHT22;18973;48.580;8.912;2022-08-19T00:04:12;21.30;99.90
32534;DHT22;18973;48.580;8.912;2022-08-19T00:06:41;21.30;99.90
32534;DHT22;18973;48.580;8.912;2022-08-19T00:09:09;21.30;99.90
32534;DHT22;18973;48.580;8.912;2022-08-19T00:11:36;21.30;99.90
32534;DHT22;18973;48.580;8.912;2022-08-19T00:14:04;21.30;99.90
32534;DHT22;18973;48.580;8.912;2022-08-19T00:16:30;21.30;99.90
32534;DHT22;18973;48.580;8.912;2022-08-19T00:18:56;21.20;99.90
32534;DHT22;18973;48.580;8.912;2022-08-19T00:21:23;21.30;99.90
32534;DHT22;18973;48.580;8.912;2022-08-19T00:23:50;21.30;99.90
32534;DHT22;18973;48.580;8.912;2022-08-19T00:26:15;21.30;99.90
32534;DHT22;18973;48.580;8.912;2022-08-19T00:28:41;21.30;99.90
32534;DHT22;18973;48.580;8.912;2022-08-19T00:31:08;21.30;99.90
32534;DHT22;18973;48.580;8.912;2022-08-19T00:33:35;21.30;99.90
32534;DHT22;18973;48.580;8.912;2022-08-19T00:36:02;21.30;99.90
32534;DHT22;18973;48.580;8.912;2022-08-19T00:38:30;21.20;99.90
32534;DHT22;18973;48.580;8.912;2022-08-19T00:40:56;21.20;99.90
32534;DHT22;18973;48.580;8.912;2022-08-19T00:43:24;21.10;99.90
32534;DHT22;18973;48.580;8.912;2022-08-19T00:45:51;21.00;99.90
32534;DHT22;18973;48.580;8.912;2022-08-19T00:48:18;21.00;99.90
32534;DHT22;18973;48.580;8.912;2022-08-19T00:50:45;21.00;99.90
32534;DHT22;18973;48.580;8.912;2022-08-19T00:53:15;21.10;99.90
32534;DHT22;18973;48.580;8.912;2022-08-19T00:55:45;21.10;99.90
32534;DHT22;18973;48.580;8.912;2022-08-19T00:58:14;21.00;99.90
32534;DHT22;18973;48.580;8.912;2022-08-19T01:00:41;21.00;99.90
32534;DHT22;18973;48.580;8.912;2022-08-19T01:03:09;21.00;99.90
32534;DHT22;18973;48.580;8.912;2022-08-19T01:05:36;20.90;99.90
32534;DHT22;18973;48.580;8.912;2022-08-19T01:08:04;20.90;99.90
32534;DHT22;18973;48.580;8.912;2022-08-19T01:10:33;20.80;99.90
32534;DHT22;18973;48.580;8.912;2022-08-19T01:13:01;20.80;99.90
32534;DHT22;18973;48.580;8.912;2022-08-19T01:15:31;20.70;99.90
32534;DHT22;18973;48.580;8.912;2022-08-19T01:18:00;20.70;99.90
32534;DHT22;18973;48.580;8.912;2022-08-19T01:20:26;20.70;99.90
32534;DHT22;18973;48.580;8.912;2022-08-19T01:22:58;20.60;99.90
32534;DHT22;18973;48.580;8.912;2022-08-19T01:25:40;20.50;99.90
32534;DHT22;18973;48.580;8.912;2022-08-19T01:28:07;20.40;99.90
32534;DHT22;18973;48.580;8.912;2022-08-19T01:30:34;20.40;99.90
32534;DHT22;18973;48.580;8.912;2022-08-19T01:33:02;20.30;99.90
32534;DHT22;18973;48.580;8.912;2022-08-19T01:35:30;20.30;99.90
32534;DHT22;18973;48.580;8.912;2022-08-19T01:38:00;20.20;99.90
32534;DHT22;18973;48.580;8.912;2022-08-19T01:40:31;20.20;99.90
32534;DHT22;18973;48.580;8.912;2022-08-19T01:42:57;20.20;99.90
32534;DHT22;18973;48.580;8.912;2022-08-19T01:45:25;20.20;99.90
32534;DHT22;18973;48.580;8.912;2022-08-19T01:47:52;20.20;99.90
32534;DHT22;18973;48.580;8.912;2022-08-19T01:50:17;20.20;99.90
32534;DHT22;18973;48.580;8.912;2022-08-19T01:52:44;20.20;99.90
32534;DHT22;18973;48.580;8.912;2022-08-19T01:55:15;20.20;99.90
32534;DHT22;18973;48.580;8.912;2022-08-19T01:57:45;20.10;99.90
32534;DHT22;18973;48.580;8.912;2022-08-19T02:00:13;20.00;99.90
32534;DHT22;18973;48.580;8.912;2022-08-19T02:02:41;19.90;99.90
32534;DHT22;18973;48.580;8.912;2022-08-19T02:05:08;19.80;99.90
32534;DHT22;18973;48.580;8.912;2022-08-19T02:07:35;19.70;99.90
32534;DHT22;18973;48.580;8.912;2022-08-19T02:10:04;19.70;99.90
32534;DHT22;18973;48.580;8.912;2022-08-19T02:12:30;19.70;99.90
32534;DHT22;18973;48.580;8.912;2022-08-19T02:14:55;19.70;99.90
32534;DHT22;18973;48.580;8.912;2022-08-19T02:17:21;19.60;99.90
32534;DHT22;18973;48.580;8.912;2022-08-19T02:19:47;19.70;99.90
32534;DHT22;18973;48.580;8.912;2022-08-19T02:22:14;19.70;99.90
32534;DHT22;18973;48.580;8.912;2022-08-19T02:24:40;19.80;99.90
32534;DHT22;18973;48.580;8.912;2022-08-19T02:27:06;19.70;99.90
32534;DHT22;18973;48.580;8.912;2022-08-19T02:29:31;19.70;99.90
32534;DHT22;18973;48.580;8.912;2022-08-19T02:31:57;19.60;99.90
32534;DHT22;18973;48.580;8.912;2022-08-19T02:34:24;19.60;99.90
32534;DHT22;18973;48.580;8.912;2022-08-19T02:36:51;19.60;99.90
32534;DHT22;18973;48.580;8.912;2022-08-19T02:39:17;19.60;99.90
32534;DHT22;18973;48.580;8.912;2022-08-19T02:41:43;19.70;99.90
32534;DHT22;18973;48.580;8.912;2022-08-19T02:44:09;19.70;99.90
32534;DHT22;18973;48.580;8.912;2022-08-19T02:46:35;19.70;99.90
32534;DHT22;18973;48.580;8.912;2022-08-19T02:49:04;19.60;99.90
32534;DHT22;18973;48.580;8.912;2022-08-19T02:51:41;19.60;99.90
32534;DHT22;18973;48.580;8.912;2022-08-19T02:54:08;19.60;99.90
32534;DHT22;18973;48.580;8.912;2022-08-19T02:56:36;19.60;99.90
32534;DHT22;18973;48.580;8.912;2022-08-19T02:59:03;19.60;99.90
32534;DHT22;18973;48.580;8.912;2022-08-19T03:01:32;19.60;99.90
32534;DHT22;18973;48.580;8.912;2022-08-19T03:04:02;19.50;99.90
32534;DHT22;18973;48.580;8.912;2022-08-19T03:06:28;19.60;99.90
32534;DHT22;18973;48.580;8.912;2022-08-19T03:08:55;19.50;99.90
32534;DHT22;18973;48.580;8.912;2022-08-19T03:11:28;19.50;99.90
32534;DHT22;18973;48.580;8.912;2022-08-19T03:13:55;19.50;99.90
32534;DHT22;18973;48.580;8.912;2022-08-19T03:16:23;19.50;99.90
32534;DHT22;18973;48.580;8.912;2022-08-19T03:18:51;19.50;99.90
32534;DHT22;18973;48.580;8.912;2022-08-19T03:21:20;19.40;99.90
32534;DHT22;18973;48.580;8.912;2022-08-19T03:23:46;19.40;99.90
32534;DHT22;18973;48.580;8.912;2022-08-19T03:26:12;19.40;99.90
32534;DHT22;18973;48.580;8.912;2022-08-19T03:28:39;19.40;99.90
32534;DHT22;18973;48.580;8.912;2022-08-19T03:31:08;19.40;99.90
32534;DHT22;18973;48.580;8.912;2022-08-19T03:33:35;19.40;99.90
32534;DHT22;18973;48.580;8.912;2022-08-19T03:38:34;19.30;99.90
32534;DHT22;18973;48.580;8.912;2022-08-19T03:41:13;19.30;99.90
32534;DHT22;18973;48.580;8.912;2022-08-19T03:43:40;19.30;99.90
32534;DHT22;18973;48.580;8.912;2022-08-19T03:46:12;19.40;99.90
32534;DHT22;18973;48.580;8.912;2022-08-19T03:48:39;19.40;99.90
32534;DHT22;18973;48.580;8.912;2022-08-19T03:51:06;19.40;99.90
32534;DHT22;18973;48.580;8.912;2022-08-19T03:53:34;19.40;99.90
32534;DHT22;18973;48.580;8.912;2022-08-19T03:56:01;19.40;99.90
32534;DHT22;18973;48.580;8.912;2022-08-19T03:58:28;19.40;99.90
32534;DHT22;18973;48.580;8.912;2022-08-19T04:00:58;19.20;99.90
32534;DHT22;18973;48.580;8.912;2022-08-19T04:03:25;19.20;99.90
32534;DHT22;18973;48.580;8.912;2022-08-19T04:05:52;19.30;99.90
32534;DHT22;18973;48.580;8.912;2022-08-19T04:08:19;19.30;99.90
32534;DHT22;18973;48.580;8.912;2022-08-19T04:10:48;19.20;99.90
32534;DHT22;18973;48.580;8.912;2022-08-19T04:13:18;19.20;99.90
32534;DHT22;18973;48.580;8.912;2022-08-19T04:15:45;19.20;99.90
32534;DHT22;18973;48.580;8.912;2022-08-19T04:18:12;19.20;99.90
32534;DHT22;18973;48.580;8.912;2022-08-19T04:20:46;19.20;99.90
32534;DHT22;18973;48.580;8.912;2022-08-19T04:23:13;19.20;99.90
32534;DHT22;18973;48.580;8.912;2022-08-19T04:25:41;19.20;99.90
32534;DHT22;18973;48.580;8.912;2022-08-19T04:28:08;19.30;99.90
32534;DHT22;18973;48.580;8.912;2022-08-19T04:30:42;19.30;99.90
32534;DHT22;18973;48.580;8.912;2022-08-19T04:33:09;19.30;99.90
32534;DHT22;18973;48.580;8.912;2022-08-19T04:35:44;19.30;99.90
32534;DHT22;18973;48.580;8.912;2022-08-19T04:38:10;19.30;99.90
32534;DHT22;18973;48.580;8.912;2022-08-19T04:40:46;19.20;99.90
32534;DHT22;18973;48.580;8.912;2022-08-19T04:43:33;19.30;99.90
32534;DHT22;18973;48.580;8.912;2022-08-19T04:46:06;19.20;99.90
32534;DHT22;18973;48.580;8.912;2022-08-19T04:48:32;19.20;99.90
32534;DHT22;18973;48.580;8.912;2022-08-19T04:50:58;19.20;99.90
32534;DHT22;18973;48.580;8.912;2022-08-19T04:53:29;19.10;99.90
32534;DHT22;18973;48.580;8.912;2022-08-19T04:55:56;19.10;99.90
32534;DHT22;18973;48.580;8.912;2022-08-19T04:58:24;19.10;99.90
32534;DHT22;18973;48.580;8.912;2022-08-19T05:00:50;19.20;99.90
32534;DHT22;18973;48.580;8.912;2022-08-19T05:03:16;19.10;99.90
32534;DHT22;18973;48.580;8.912;2022-08-19T05:05:43;19.00;99.90
32534;DHT22;18973;48.580;8.912;2022-08-19T05:08:10;19.10;99.90
32534;DHT22;18973;48.580;8.912;2022-08-19T05:10:37;19.10;99.90
32534;DHT22;18973;48.580;8.912;2022-08-19T05:13:04;19.00;99.90
32534;DHT22;18973;48.580;8.912;2022-08-19T05:15:30;19.10;99.90
32534;DHT22;18973;48.580;8.912;2022-08-19T05:17:55;19.10;99.90
32534;DHT22;18973;48.580;8.912;2022-08-19T05:20:40;19.10;99.90
32534;DHT22;18973;48.580;8.912;2022-08-19T05:23:24;19.10;99.90
32534;DHT22;18973;48.580;8.912;2022-08-19T05:25:51;19.00;99.90
32534;DHT22;18973;48.580;8.912;2022-08-19T05:28:17;19.00;99.90
32534;DHT22;18973;48.580;8.912;2022-08-19T05:30:44;19.00;99.90
32534;DHT22;18973;48.580;8.912;2022-08-19T05:33:10;19.10;99.90
32534;DHT22;18973;48.580;8.912;2022-08-19T05:35:38;19.10;99.90
32534;DHT22;18973;48.580;8.912;2022-08-19T05:38:05;19.20;99.90
32534;DHT22;18973;48.580;8.912;2022-08-19T05:40:34;19.20;99.90
32534;DHT22;18973;48.580;8.912;2022-08-19T05:43:02;19.30;99.90
32534;DHT22;18973;48.580;8.912;2022-08-19T05:45:29;19.40;99.90
32534;DHT22;18973;48.580;8.912;2022-08-19T05:47:54;19.30;99.90
32534;DHT22;18973;48.580;8.912;2022-08-19T05:50:20;19.40;99.90
32534;DHT22;18973;48.580;8.912;2022-08-19T05:52:46;19.40;99.90
32534;DHT22;18973;48.580;8.912;2022-08-19T05:55:12;19.40;99.90
32534;DHT22;18973;48.580;8.912;2022-08-19T05:57:39;19.40;99.90
32534;DHT22;18973;48.580;8.912;2022-08-19T06:00:06;19.30;99.90
32534;DHT22;18973;48.580;8.912;2022-08-19T06:02:36;19.30;99.90
32534;DHT22;18973;48.580;8.912;2022-08-19T06:05:03;19.40;99.90
32534;DHT22;18973;48.580;8.912;2022-08-19T06:07:29;19.40;99.90
32534;DHT22;18973;48.580;8.912;2022-08-19T06:09:55;19.40;99.90
32534;DHT22;18973;48.580;8.912;2022-08-19T06:12:21;19.40;99.90
32534;DHT22;18973;48.580;8.912;2022-08-19T06:15:03;19.40;99.90
32534;DHT22;18973;48.580;8.912;2022-08-19T06:17:30;19.40;99.90
32534;DHT22;18973;48.580;8.912;2022-08-19T06:19:56;19.40;99.90
32534;DHT22;18973;48.580;8.912;2022-08-19T06:22:22;19.50;99.90
32534;DHT22;18973;48.580;8.912;2022-08-19T06:24:48;19.50;99.90
32534;DHT22;18973;48.580;8.912;2022-08-19T06:27:18;19.50;99.90
32534;DHT22;18973;48.580;8.912;2022-08-19T06:29:44;19.40;99.90
32534;DHT22;18973;48.580;8.912;2022-08-19T06:32:13;19.50;99.90
32534;DHT22;18973;48.580;8.912;2022-08-19T06:34:40;19.40;99.90
32534;DHT22;18973;48.580;8.912;2022-08-19T06:37:07;19.40;99.90
32534;DHT22;18973;48.580;8.912;2022-08-19T06:39:37;19.40;99.90
32534;DHT22;18973;48.580;8.912;2022-08-19T06:42:04;19.40;99.90
32534;DHT22;18973;48.580;8.912;2022-08-19T06:44:34;19.40;99.90
32534;DHT22;18973;48.580;8.912;2022-08-19T06:47:03;19.50;99.90
32534;DHT22;18973;48.580;8.912;2022-08-19T06:49:29;19.50;99.90
32534;DHT22;18973;48.580;8.912;2022-08-19T06:51:56;19.50;99.90
32534;DHT22;18973;48.580;8.912;2022-08-19T06:54:23;19.40;99.90
32534;DHT22;18973;48.580;8.912;2022-08-19T06:56:49;19.50;99.90
32534;DHT22;18973;48.580;8.912;2022-08-19T06:59:17;19.60;99.90
32534;DHT22;18973;48.580;8.912;2022-08-19T07:01:49;19.60;99.90
32534;DHT22;18973;48.580;8.912;2022-08-19T07:04:20;19.70;99.90
32534;DHT22;18973;48.580;8.912;2022-08-19T07:06:46;19.70;99.90
32534;DHT22;18973;48.580;8.912;2022-08-19T07:09:14;19.70;99.90
32534;DHT22;18973;48.580;8.912;2022-08-19T07:11:48;19.70;99.90
32534;DHT22;18973;48.580;8.912;2022-08-19T07:14:15;20.00;99.90
32534;DHT22;18973;48.580;8.912;2022-08-19T07:16:43;20.20;99.90
32534;DHT22;18973;48.580;8.912;2022-08-19T07:19:11;20.30;99.90
32534;DHT22;18973;48.580;8.912;2022-08-19T07:21:37;20.40;99.90
32534;DHT22;18973;48.580;8.912;2022-08-19T07:24:03;20.50;99.90
32534;DHT22;18973;48.580;8.912;2022-08-19T07:26:32;20.60;99.90
32534;DHT22;18973;48.580;8.912;2022-08-19T07:28:58;20.80;99.90
32534;DHT22;18973;48.580;8.912;2022-08-19T07:31:27;20.70;99.90
32534;DHT22;18973;48.580;8.912;2022-08-19T07:33:55;20.70;99.90
32534;DHT22;18973;48.580;8.912;2022-08-19T07:36:26;20.80;99.90
32534;DHT22;18973;48.580;8.912;2022-08-19T07:38:59;20.80;99.90
32534;DHT22;18973;48.580;8.912;2022-08-19T07:41:27;20.60;99.90
32534;DHT22;18973;48.580;8.912;2022-08-19T07:43:56;20.50;99.90
32534;DHT22;18973;48.580;8.912;2022-08-19T07:46:22;20.50;99.90
32534;DHT22;18973;48.580;8.912;2022-08-19T07:48:51;20.50;99.90
32534;DHT22;18973;48.580;8.912;2022-08-19T07:51:19;20.50;99.90
32534;DHT22;18973;48.580;8.912;2022-08-19T07:53:45;20.40;99.90
32534;DHT22;18973;48.580;8.912;2022-08-19T07:56:15;20.40;99.90
32534;DHT22;18973;48.580;8.912;2022-08-19T07:58:43;20.40;99.90
32534;DHT22;18973;48.580;8.912;2022-08-19T08:01:15;20.30;99.90
32534;DHT22;18973;48.580;8.912;2022-08-19T08:03:42;20.40;99.90
32534;DHT22;18973;48.580;8.912;2022-08-19T08:06:26;20.50;99.90
32534;DHT22;18973;48.580;8.912;2022-08-19T08:09:12;20.50;99.90
32534;DHT22;18973;48.580;8.912;2022-08-19T08:14:22;20.40;99.90
32534;DHT22;18973;48.580;8.912;2022-08-19T08:16:49;20.40;99.90
32534;DHT22;18973;48.580;8.912;2022-08-19T08:19:17;20.40;99.90
32534;DHT22;18973;48.580;8.912;2022-08-19T08:21:44;20.50;99.90
32534;DHT22;18973;48.580;8.912;2022-08-19T08:24:10;20.50;99.90
32534;DHT22;18973;48.580;8.912;2022-08-19T08:26:37;20.60;99.90
32534;DHT22;18973;48.580;8.912;2022-08-19T08:29:03;20.60;99.90
32534;DHT22;18973;48.580;8.912;2022-08-19T08:31:29;20.70;99.90
32534;DHT22;18973;48.580;8.912;2022-08-19T08:33:54;20.70;99.90
32534;DHT22;18973;48.580;8.912;2022-08-19T08:36:21;20.80;99.90
32534;DHT22;18973;48.580;8.912;2022-08-19T08:38:51;20.90;99.90
32534;DHT22;18973;48.580;8.912;2022-08-19T08:44:03;21.00;99.90
32534;DHT22;18973;48.580;8.912;2022-08-19T08:46:43;21.10;99.90
32534;DHT22;18973;48.580;8.912;2022-08-19T08:49:21;21.10;99.90
32534;DHT22;18973;48.580;8.912;2022-08-19T08:52:15;21.10;99.90
32534;DHT22;18973;48.580;8.912;2022-08-19T08:54:47;21.10;99.90
32534;DHT22;18973;48.580;8.912;2022-08-19T08:57:18;21.10;99.90
32534;DHT22;18973;48.580;8.912;2022-08-19T08:59:47;21.00;99.90
32534;DHT22;18973;48.580;8.912;2022-08-19T09:02:18;21.00;99.90
32534;DHT22;18973;48.580;8.912;2022-08-19T09:04:44;21.00;99.90
32534;DHT22;18973;48.580;8.912;2022-08-19T09:09:56;20.90;99.90
32534;DHT22;18973;48.580;8.912;2022-08-19T09:15:07;21.00;99.90
32534;DHT22;18973;48.580;8.912;2022-08-19T09:17:34;21.10;99.90
32534;DHT22;18973;48.580;8.912;2022-08-19T09:20:13;21.10;99.90
32534;DHT22;18973;48.580;8.912;2022-08-19T09:22:41;21.10;99.90
32534;DHT22;18973;48.580;8.912;2022-08-19T09:25:12;21.10;99.90
32534;DHT22;18973;48.580;8.912;2022-08-19T09:27:40;21.10;99.90
32534;DHT22;18973;48.580;8.912;2022-08-19T09:30:08;21.10;99.90
32534;DHT22;18973;48.580;8.912;2022-08-19T09:32:35;21.10;99.90
32534;DHT22;18973;48.580;8.912;2022-08-19T09:35:01;21.10;99.90
32534;DHT22;18973;48.580;8.912;2022-08-19T09:37:27;21.10;99.90
32534;DHT22;18973;48.580;8.912;2022-08-19T09:39:53;21.10;99.90
32534;DHT22;18973;48.580;8.912;2022-08-19T09:42:19;21.10;99.90
32534;DHT22;18973;48.580;8.912;2022-08-19T09:44:46;21.20;99.90
32534;DHT22;18973;48.580;8.912;2022-08-19T09:47:13;21.10;99.90
32534;DHT22;18973;48.580;8.912;2022-08-19T09:49:39;21.10;99.90
32534;DHT22;18973;48.580;8.912;2022-08-19T09:52:08;21.00;99.90
32534;DHT22;18973;48.580;8.912;2022-08-19T09:54:34;21.10;99.90
32534;DHT22;18973;48.580;8.912;2022-08-19T09:57:00;21.10;99.90
32534;DHT22;18973;48.580;8.912;2022-08-19T09:59:27;21.10;99.90
32534;DHT22;18973;48.580;8.912;2022-08-19T10:01:53;21.20;99.90
32534;DHT22;18973;48.580;8.912;2022-08-19T10:04:19;21.20;99.90
32534;DHT22;18973;48.580;8.912;2022-08-19T10:06:48;21.20;99.90
32534;DHT22;18973;48.580;8.912;2022-08-19T10:09:16;21.20;99.90
32534;DHT22;18973;48.580;8.912;2022-08-19T10:11:44;21.20;99.90
32534;DHT22;18973;48.580;8.912;2022-08-19T10:14:15;21.20;99.90
32534;DHT22;18973;48.580;8.912;2022-08-19T10:16:42;21.30;99.90
32534;DHT22;18973;48.580;8.912;2022-08-19T10:19:08;21.30;99.90
32534;DHT22;18973;48.580;8.912;2022-08-19T10:21:35;21.30;99.90
32534;DHT22;18973;48.580;8.912;2022-08-19T10:24:03;21.40;99.90
32534;DHT22;18973;48.580;8.912;2022-08-19T10:26:32;21.40;99.90
32534;DHT22;18973;48.580;8.912;2022-08-19T10:29:01;21.40;99.90
32534;DHT22;18973;48.580;8.912;2022-08-19T10:31:29;21.60;99.90
32534;DHT22;18973;48.580;8.912;2022-08-19T10:33:56;21.50;99.90
32534;DHT22;18973;48.580;8.912;2022-08-19T10:36:32;21.50;99.90
32534;DHT22;18973;48.580;8.912;2022-08-19T10:39:00;21.40;99.90
32534;DHT22;18973;48.580;8.912;2022-08-19T10:41:29;21.40;99.90
32534;DHT22;18973;48.580;8.912;2022-08-19T10:43:57;21.30;99.90
32534;DHT22;18973;48.580;8.912;2022-08-19T10:46:25;21.30;99.90
32534;DHT22;18973;48.580;8.912;2022-08-19T10:48:51;21.30;99.90
32534;DHT22;18973;48.580;8.912;2022-08-19T10:51:17;21.30;99.90
32534;DHT22;18973;48.580;8.912;2022-08-19T10:54:02;21.30;99.90
32534;DHT22;18973;48.580;8.912;2022-08-19T10:56:29;21.40;99.90
32534;DHT22;18973;48.580;8.912;2022-08-19T10:59:15;21.60;99.90
32534;DHT22;18973;48.580;8.912;2022-08-19T11:01:42;21.70;99.90
32534;DHT22;18973;48.580;8.912;2022-08-19T11:04:08;21.80;99.90
32534;DHT22;18973;48.580;8.912;2022-08-19T11:06:37;21.90;99.90
32534;DHT22;18973;48.580;8.912;2022-08-19T11:09:04;21.90;99.90
32534;DHT22;18973;48.580;8.912;2022-08-19T11:11:31;21.90;99.90
32534;DHT22;18973;48.580;8.912;2022-08-19T11:13:57;21.90;99.90
32534;DHT22;18973;48.580;8.912;2022-08-19T11:16:25;22.00;99.90
32534;DHT22;18973;48.580;8.912;2022-08-19T11:18:58;22.00;99.90
32534;DHT22;18973;48.580;8.912;2022-08-19T11:21:27;21.90;99.90
32534;DHT22;18973;48.580;8.912;2022-08-19T11:23:56;22.00;99.90
32534;DHT22;18973;48.580;8.912;2022-08-19T11:26:24;22.10;99.90
32534;DHT22;18973;48.580;8.912;2022-08-19T11:28:50;22.10;99.90
32534;DHT22;18973;48.580;8.912;2022-08-19T11:31:22;22.20;99.90
32534;DHT22;18973;48.580;8.912;2022-08-19T11:33:48;22.10;99.90
32534;DHT22;18973;48.580;8.912;2022-08-19T11:36:20;22.10;99.90
32534;DHT22;18973;48.580;8.912;2022-08-19T11:38:47;22.10;99.90
32534;DHT22;18973;48.580;8.912;2022-08-19T11:41:15;22.20;99.90
32534;DHT22;18973;48.580;8.912;2022-08-19T11:43:41;22.10;99.90
32534;DHT22;18973;48.580;8.912;2022-08-19T11:46:09;22.20;99.90
32534;DHT22;18973;48.580;8.912;2022-08-19T11:48:36;22.30;99.90
32534;DHT22;18973;48.580;8.912;2022-08-19T11:51:14;22.30;99.90
32534;DHT22;18973;48.580;8.912;2022-08-19T11:53:41;22.30;99.90
32534;DHT22;18973;48.580;8.912;2022-08-19T11:56:08;22.40;99.90
32534;DHT22;18973;48.580;8.912;2022-08-19T11:58:35;22.50;99.90
32534;DHT22;18973;48.580;8.912;2022-08-19T12:01:01;22.50;99.90
32534;DHT22;18973;48.580;8.912;2022-08-19T12:03:27;22.50;99.90
32534;DHT22;18973;48.580;8.912;2022-08-19T12:05:53;22.60;99.90
32534;DHT22;18973;48.580;8.912;2022-08-19T12:08:19;22.70;99.90
32534;DHT22;18973;48.580;8.912;2022-08-19T12:10:45;22.70;99.90
32534;DHT22;18973;48.580;8.912;2022-08-19T12:13:12;22.70;99.90
32534;DHT22;18973;48.580;8.912;2022-08-19T12:15:46;22.80;99.90
32534;DHT22;18973;48.580;8.912;2022-08-19T12:18:12;22.90;99.90
32534;DHT22;18973;48.580;8.912;2022-08-19T12:20:42;22.90;99.90
32534;DHT22;18973;48.580;8.912;2022-08-19T12:23:09;22.80;99.90
32534;DHT22;18973;48.580;8.912;2022-08-19T12:25:37;22.90;99.90
32534;DHT22;18973;48.580;8.912;2022-08-19T12:28:03;22.80;99.90
32534;DHT22;18973;48.580;8.912;2022-08-19T12:30:29;22.70;99.90
32534;DHT22;18973;48.580;8.912;2022-08-19T12:32:55;22.70;99.90
32534;DHT22;18973;48.580;8.912;2022-08-19T12:35:20;22.70;99.90
32534;DHT22;18973;48.580;8.912;2022-08-19T12:37:48;22.70;99.90
32534;DHT22;18973;48.580;8.912;2022-08-19T12:40:15;22.70;99.90
32534;DHT22;18973;48.580;8.912;2022-08-19T12:42:41;22.70;99.90
32534;DHT22;18973;48.580;8.912;2022-08-19T12:45:12;22.80;99.90
32534;DHT22;18973;48.580;8.912;2022-08-19T12:47:39;22.90;99.90
32534;DHT22;18973;48.580;8.912;2022-08-19T12:50:05;23.00;99.90
32534;DHT22;18973;48.580;8.912;2022-08-19T12:52:36;23.10;99.90
32534;DHT22;18973;48.580;8.912;2022-08-19T12:55:07;23.20;99.90
32534;DHT22;18973;48.580;8.912;2022-08-19T12:57:33;23.10;99.90
32534;DHT22;18973;48.580;8.912;2022-08-19T13:00:08;23.10;99.90
32534;DHT22;18973;48.580;8.912;2022-08-19T13:02:43;22.90;99.90
32534;DHT22;18973;48.580;8.912;2022-08-19T13:05:13;22.70;99.90
32534;DHT22;18973;48.580;8.912;2022-08-19T13:07:40;22.60;99.90
32534;DHT22;18973;48.580;8.912;2022-08-19T13:10:07;22.50;99.90
32534;DHT22;18973;48.580;8.912;2022-08-19T13:12:34;22.40;99.90
32534;DHT22;18973;48.580;8.912;2022-08-19T13:15:00;22.40;99.90
32534;DHT22;18973;48.580;8.912;2022-08-19T13:17:27;22.30;99.90
32534;DHT22;18973;48.580;8.912;2022-08-19T13:19:52;22.30;99.90
32534;DHT22;18973;48.580;8.912;2022-08-19T13:22:18;22.30;99.90
32534;DHT22;18973;48.580;8.912;2022-08-19T13:24:44;22.10;99.90
32534;DHT22;18973;48.580;8.912;2022-08-19T13:27:10;22.10;99.90
32534;DHT22;18973;48.580;8.912;2022-08-19T13:29:36;22.10;99.90
32534;DHT22;18973;48.580;8.912;2022-08-19T13:32:20;22.10;99.90
32534;DHT22;18973;48.580;8.912;2022-08-19T13:35:04;22.10;99.90
32534;DHT22;18973;48.580;8.912;2022-08-19T13:37:30;22.10;99.90
32534;DHT22;18973;48.580;8.912;2022-08-19T13:40:11;22.10;99.90
32534;DHT22;18973;48.580;8.912;2022-08-19T13:42:39;22.10;99.90
32534;DHT22;18973;48.580;8.912;2022-08-19T13:45:06;22.10;99.90
32534;DHT22;18973;48.580;8.912;2022-08-19T13:47:33;22.10;99.90
32534;DHT22;18973;48.580;8.912;2022-08-19T13:50:08;22.20;99.90
32534;DHT22;18973;48.580;8.912;2022-08-19T13:52:35;22.20;99.90
32534;DHT22;18973;48.580;8.912;2022-08-19T13:55:00;22.30;99.90
32534;DHT22;18973;48.580;8.912;2022-08-19T13:57:26;22.40;99.90
32534;DHT22;18973;48.580;8.912;2022-08-19T13:59:52;22.50;99.90
32534;DHT22;18973;48.580;8.912;2022-08-19T14:02:17;22.50;99.90
32534;DHT22;18973;48.580;8.912;2022-08-19T14:04:44;22.50;99.90
32534;DHT22;18973;48.580;8.912;2022-08-19T14:07:10;22.50;99.90
32534;DHT22;18973;48.580;8.912;2022-08-19T14:09:35;22.60;99.90
32534;DHT22;18973;48.580;8.912;2022-08-19T14:12:01;22.60;99.90
32534;DHT22;18973;48.580;8.912;2022-08-19T14:14:27;22.60;99.90
32534;DHT22;18973;48.580;8.912;2022-08-19T14:16:54;22.60;99.90
32534;DHT22;18973;48.580;8.912;2022-08-19T14:19:23;22.70;99.90
32534;DHT22;18973;48.580;8.912;2022-08-19T14:21:49;22.80;99.90
32534;DHT22;18973;48.580;8.912;2022-08-19T14:24:15;22.90;99.90
32534;DHT22;18973;48.580;8.912;2022-08-19T14:26:40;23.00;99.90
32534;DHT22;18973;48.580;8.912;2022-08-19T14:29:06;23.10;99.90
32534;DHT22;18973;48.580;8.912;2022-08-19T14:31:32;23.20;99.90
32534;DHT22;18973;48.580;8.912;2022-08-19T14:33:58;23.40;99.90
32534;DHT22;18973;48.580;8.912;2022-08-19T14:36:24;23.40;99.90
32534;DHT22;18973;48.580;8.912;2022-08-19T14:38:50;23.60;99.90
32534;DHT22;18973;48.580;8.912;2022-08-19T14:41:21;23.60;99.90
32534;DHT22;18973;48.580;8.912;2022-08-19T14:43:49;23.70;99.90
32534;DHT22;18973;48.580;8.912;2022-08-19T14:46:19;23.80;99.90
32534;DHT22;18973;48.580;8.912;2022-08-19T14:48:46;23.80;99.90
32534;DHT22;18973;48.580;8.912;2022-08-19T14:51:13;23.80;99.90
32534;DHT22;18973;48.580;8.912;2022-08-19T14:53:40;23.90;99.90
32534;DHT22;18973;48.580;8.912;2022-08-19T14:56:13;23.90;99.70
32534;DHT22;18973;48.580;8.912;2022-08-19T14:58:40;23.80;99.70
32534;DHT22;18973;48.580;8.912;2022-08-19T15:01:07;23.80;99.90
32534;DHT22;18973;48.580;8.912;2022-08-19T15:03:33;23.90;99.90
32534;DHT22;18973;48.580;8.912;2022-08-19T15:06:03;23.80;99.90
32534;DHT22;18973;48.580;8.912;2022-08-19T15:08:32;23.90;99.90
32534;DHT22;18973;48.580;8.912;2022-08-19T15:11:00;23.90;99.90
32534;DHT22;18973;48.580;8.912;2022-08-19T15:13:27;23.80;99.90
32534;DHT22;18973;48.580;8.912;2022-08-19T15:15:55;23.90;99.90
32534;DHT22;18973;48.580;8.912;2022-08-19T15:18:21;23.90;99.90
32534;DHT22;18973;48.580;8.912;2022-08-19T15:20:48;23.90;99.90
32534;DHT22;18973;48.580;8.912;2022-08-19T15:23:15;24.00;99.80
32534;DHT22;18973;48.580;8.912;2022-08-19T15:25:42;23.90;99.90
32534;DHT22;18973;48.580;8.912;2022-08-19T15:28:09;23.90;99.90
32534;DHT22;18973;48.580;8.912;2022-08-19T15:30:37;23.80;99.90
32534;DHT22;18973;48.580;8.912;2022-08-19T15:33:04;23.80;99.90
32534;DHT22;18973;48.580;8.912;2022-08-19T15:35:30;23.90;99.90
32534;DHT22;18973;48.580;8.912;2022-08-19T15:37:56;23.90;99.90
32534;DHT22;18973;48.580;8.912;2022-08-19T15:40:23;23.90;99.90
32534;DHT22;18973;48.580;8.912;2022-08-19T15:42:49;23.90;99.90
32534;DHT22;18973;48.580;8.912;2022-08-19T15:45:18;23.90;99.90
32534;DHT22;18973;48.580;8.912;2022-08-19T15:47:44;23.90;99.90
32534;DHT22;18973;48.580;8.912;2022-08-19T15:50:19;23.80;99.90